Time;durP1;ratioP1;P1;durP2;ratioP2;P2;SDS_P1;SDS_P2;PMS_P1;PMS_P2;Temp;Humidity;BMP_temperature;BMP_pressure;BME280_temperature;BME280_humidity;BME280_pressure;Samples;Min_cycle;Max_cycle;Signal;HPM_P1;HPM_P2
2022/12/10 00:02:22;;;;;;;39.70;21.65;;;1.80;99.90;;;;;;5011764;28;20041;-56
2022/12/10 00:05:08;;;;;;;38.83;21.20;;;1.70;99.90;;;;;;5003853;28;20033;-58
2022/12/10 00:07:55;;;;;;;36.88;20.77;;;1.70;99.90;;;;;;5013702;28;20037;-58
2022/12/10 00:10:41;;;;;;;37.53;21.13;;;1.70;99.90;;;;;;5009325;28;20281;-56
2022/12/10 00:13:27;;;;;;;38.47;21.52;;;1.60;99.90;;;;;;5007272;28;20030;-58
2022/12/10 00:16:15;;;;;;;39.20;21.92;;;1.60;99.90;;;;;;5015016;28;20093;-57
2022/12/10 00:19:01;;;;;;;38.92;21.17;;;1.60;99.90;;;;;;5007232;28;20030;-59
2022/12/10 00:21:47;;;;;;;38.35;20.02;;;1.50;99.90;;;;;;5012656;28;20030;-55
2022/12/10 00:24:33;;;;;;;38.72;22.25;;;1.40;99.90;;;;;;5012564;28;20033;-57
2022/12/10 00:27:19;;;;;;;37.28;20.25;;;1.50;99.90;;;;;;5012314;28;20037;-56
2022/12/10 00:30:05;;;;;;;38.17;20.77;;;1.50;99.90;;;;;;5012920;28;20096;-58
2022/12/10 00:32:51;;;;;;;39.28;21.30;;;1.60;99.90;;;;;;5012422;28;20034;-58
2022/12/10 00:35:37;;;;;;;36.38;19.38;;;1.50;99.90;;;;;;5012931;28;20116;-58
2022/12/10 00:38:23;;;;;;;37.88;21.23;;;1.50;99.90;;;;;;5007420;28;20035;-53
2022/12/10 00:41:11;;;;;;;43.50;22.10;;;1.50;99.90;;;;;;5026530;28;20032;-59
2022/12/10 00:43:57;;;;;;;43.17;23.70;;;1.50;99.90;;;;;;5017713;28;20026;-59
2022/12/10 00:46:43;;;;;;;40.75;22.42;;;1.60;99.90;;;;;;5012059;28;20462;-60
2022/12/10 00:49:29;;;;;;;42.20;22.13;;;1.60;99.90;;;;;;5011232;28;20406;-60
2022/12/10 00:52:15;;;;;;;38.30;20.73;;;1.60;99.90;;;;;;5021415;28;20097;-60
2022/12/10 00:55:00;;;;;;;36.20;20.08;;;1.50;99.90;;;;;;5015570;28;20076;-60
2022/12/10 00:57:46;;;;;;;40.45;22.67;;;1.50;99.90;;;;;;5011567;28;20084;-58
2022/12/10 01:00:32;;;;;;;35.75;20.40;;;1.50;99.90;;;;;;5011490;28;20054;-61
2022/12/10 01:03:18;;;;;;;42.28;23.95;;;1.40;99.90;;;;;;5011180;28;20414;-60
2022/12/10 01:06:13;;;;;;;43.72;24.17;;;1.30;99.90;;;;;;5010663;28;20508;-59
2022/12/10 01:09:02;;;;;;;41.15;21.85;;;1.40;99.90;;;;;;5009712;28;20498;-59
2022/12/10 01:11:50;;;;;;;36.65;20.70;;;1.40;99.90;;;;;;5011236;28;20038;-62
2022/12/10 01:14:36;;;;;;;41.95;22.65;;;1.50;99.90;;;;;;5009842;28;20521;-60
2022/12/10 01:17:22;;;;;;;44.63;23.98;;;1.40;99.90;;;;;;5011719;28;20405;-61
2022/12/10 01:20:08;;;;;;;42.30;22.90;;;1.40;99.90;;;;;;5011316;28;20380;-60
2022/12/10 01:22:54;;;;;;;42.58;24.55;;;1.50;99.90;;;;;;5012028;28;20085;-61
2022/12/10 01:25:40;;;;;;;42.92;24.10;;;1.50;99.90;;;;;;5011987;28;20026;-59
2022/12/10 01:28:28;;;;;;;38.75;22.50;;;1.50;99.90;;;;;;5011836;28;20092;-60
2022/12/10 01:31:19;;;;;;;43.67;23.67;;;1.50;99.90;;;;;;4991209;28;20034;-59
2022/12/10 01:34:09;;;;;;;40.65;23.88;;;1.60;99.90;;;;;;4997538;28;20030;-59
2022/12/10 01:36:55;;;;;;;44.95;23.13;;;1.50;99.90;;;;;;5011299;28;20124;-60
2022/12/10 01:39:40;;;;;;;40.03;22.48;;;1.50;99.90;;;;;;5011900;28;20410;-59
2022/12/10 01:42:26;;;;;;;40.63;23.92;;;1.50;99.90;;;;;;5012392;28;20033;-61
2022/12/10 01:45:12;;;;;;;37.88;22.27;;;1.50;99.90;;;;;;5011713;28;20037;-60
2022/12/10 01:47:58;;;;;;;41.33;23.95;;;1.50;99.90;;;;;;5011364;28;20117;-58
2022/12/10 01:50:44;;;;;;;41.08;23.02;;;1.40;99.90;;;;;;5010519;28;20582;-59
2022/12/10 01:53:31;;;;;;;41.80;23.80;;;1.50;99.90;;;;;;5010894;28;20076;-60
2022/12/10 01:56:19;;;;;;;42.78;23.45;;;1.40;99.90;;;;;;5010359;28;20029;-60
2022/12/10 01:59:05;;;;;;;43.83;23.33;;;1.40;99.90;;;;;;5011040;28;20025;-57
2022/12/10 02:02:13;;;;;;;41.88;23.55;;;1.40;99.90;;;;;;5010583;28;20057;-59
2022/12/10 02:05:20;;;;;;;43.92;23.38;;;1.30;99.90;;;;;;5011104;28;20025;-61
2022/12/10 02:08:20;;;;;;;40.67;23.67;;;1.30;99.90;;;;;;4991191;28;20035;-61
2022/12/10 02:11:29;;;;;;;39.53;23.50;;;1.30;99.90;;;;;;4991352;28;20089;-60
2022/12/10 02:14:43;;;;;;;40.60;23.27;;;1.30;99.90;;;;;;4999322;28;20617;-59
2022/12/10 02:17:34;;;;;;;43.22;24.27;;;1.30;99.90;;;;;;4982164;28;20145;-60
2022/12/10 02:20:25;;;;;;;42.33;24.52;;;1.30;99.90;;;;;;5010309;28;20022;-59
2022/12/10 02:23:35;;;;;;;44.05;24.73;;;1.30;99.90;;;;;;5010439;28;20030;-60
2022/12/10 02:26:33;;;;;;;42.78;23.63;;;1.30;99.90;;;;;;5010243;28;20037;-61
2022/12/10 02:29:23;;;;;;;41.90;22.33;;;1.30;99.90;;;;;;5010019;28;20447;-58
2022/12/10 02:32:17;;;;;;;47.05;25.08;;;1.30;99.90;;;;;;5010915;28;20410;-59
2022/12/10 02:35:09;;;;;;;40.95;23.40;;;1.20;99.90;;;;;;5010933;28;20078;-61
2022/12/10 02:38:14;;;;;;;43.30;23.45;;;1.20;99.90;;;;;;5009290;28;20042;-60
2022/12/10 02:41:07;;;;;;;43.58;24.27;;;1.20;99.90;;;;;;5010289;28;20705;-61
2022/12/10 02:43:55;;;;;;;40.65;22.58;;;1.20;99.90;;;;;;5010716;28;20034;-59
2022/12/10 02:46:44;;;;;;;37.55;21.55;;;1.20;99.90;;;;;;5010339;28;20022;-59
2022/12/10 02:49:31;;;;;;;40.95;22.27;;;1.20;99.90;;;;;;5009431;28;20506;-60
2022/12/10 02:52:19;;;;;;;41.88;23.40;;;1.20;99.90;;;;;;5008419;28;20069;-60
2022/12/10 02:55:05;;;;;;;39.10;22.65;;;1.20;99.90;;;;;;5010097;28;20029;-59
2022/12/10 02:58:17;;;;;;;35.55;21.30;;;1.20;99.90;;;;;;5009915;28;20116;-60
2022/12/10 03:02:00;;;;;;;35.40;21.55;;;1.20;99.90;;;;;;4970736;28;20027;-61
2022/12/10 03:04:50;;;;;;;35.47;20.45;;;1.20;99.90;;;;;;4911611;29;20043;-60
2022/12/10 03:07:51;;;;;;;40.28;24.17;;;1.10;99.90;;;;;;4923547;29;20078;-61
2022/12/10 03:11:11;;;;;;;41.13;23.10;;;1.10;99.90;;;;;;5013785;28;20076;-58
2022/12/10 03:14:03;;;;;;;42.28;23.73;;;1.10;99.90;;;;;;5013543;28;20029;-56
2022/12/10 03:16:56;;;;;;;44.28;24.95;;;1.10;99.90;;;;;;5009678;28;20034;-60
2022/12/10 03:19:48;;;;;;;40.25;23.05;;;1.10;99.90;;;;;;4989997;28;20034;-60
2022/12/10 03:22:36;;;;;;;44.28;25.75;;;1.10;99.90;;;;;;4993163;28;20109;-61
2022/12/10 03:25:26;;;;;;;47.08;26.25;;;1.20;99.90;;;;;;5009815;28;20096;-61
2022/12/10 03:28:14;;;;;;;50.47;25.42;;;1.10;99.90;;;;;;5011900;28;20073;-59
2022/12/10 03:31:02;;;;;;;47.08;25.38;;;1.20;99.90;;;;;;5013197;28;20030;-57
2022/12/10 03:33:48;;;;;;;51.35;27.38;;;1.20;99.90;;;;;;4994669;28;20538;-58
2022/12/10 03:36:34;;;;;;;48.47;27.42;;;1.10;99.90;;;;;;4996881;28;20113;-59
2022/12/10 03:39:21;;;;;;;48.10;26.10;;;1.10;99.90;;;;;;5013332;28;20038;-61
2022/12/10 03:42:07;;;;;;;51.20;27.17;;;1.10;99.90;;;;;;5012538;28;20061;-59
2022/12/10 03:44:53;;;;;;;48.00;24.65;;;1.00;99.90;;;;;;5013273;28;20105;-61
2022/12/10 03:47:39;;;;;;;47.95;24.67;;;1.10;99.90;;;;;;5013313;28;20104;-60
2022/12/10 03:50:25;;;;;;;43.30;23.42;;;1.00;99.90;;;;;;5013121;28;20037;-62
2022/12/10 03:53:11;;;;;;;49.13;24.70;;;0.90;99.90;;;;;;5013418;28;20110;-59
2022/12/10 03:55:57;;;;;;;49.40;26.02;;;0.90;99.90;;;;;;4993636;28;20045;-60
2022/12/10 03:58:43;;;;;;;50.30;26.60;;;1.00;99.90;;;;;;4994174;28;20031;-57
2022/12/10 04:01:29;;;;;;;47.67;25.25;;;1.00;99.90;;;;;;5012450;28;20030;-59
2022/12/10 04:04:15;;;;;;;47.33;25.15;;;1.00;99.90;;;;;;5013115;28;20034;-60
2022/12/10 04:07:01;;;;;;;50.17;25.85;;;1.00;99.90;;;;;;5013567;28;20399;-58
2022/12/10 04:09:47;;;;;;;43.58;22.88;;;1.00;99.90;;;;;;5012695;28;20030;-61
2022/12/10 04:12:34;;;;;;;46.63;24.77;;;1.00;99.90;;;;;;5013222;28;20018;-61
2022/12/10 04:18:24;;;;;;;48.20;25.48;;;1.00;99.90;;;;;;5012873;28;20037;-62
2022/12/10 04:27:35;;;;;;;50.35;27.08;;;1.00;99.90;;;;;;5012995;28;20447;-62
2022/12/10 04:30:21;;;;;;;52.88;26.60;;;1.10;99.90;;;;;;5012413;28;20125;-61
2022/12/10 04:33:07;;;;;;;53.60;26.42;;;1.20;99.90;;;;;;5012403;28;20517;-61
2022/12/10 04:35:53;;;;;;;50.00;25.25;;;1.10;99.90;;;;;;5012521;28;20137;-61
2022/12/10 04:38:39;;;;;;;57.78;27.75;;;1.10;99.90;;;;;;5011323;28;20037;-61
2022/12/10 04:41:25;;;;;;;60.50;29.33;;;1.00;99.90;;;;;;5011943;28;20458;-62
2022/12/10 04:44:11;;;;;;;55.75;26.17;;;1.00;99.90;;;;;;4993226;28;20058;-62
2022/12/10 04:46:57;;;;;;;58.67;28.25;;;1.10;99.90;;;;;;4999431;28;20068;-63
2022/12/10 04:49:43;;;;;;;62.53;27.75;;;1.10;99.90;;;;;;5012765;28;20116;-60
2022/12/10 04:52:29;;;;;;;52.05;26.02;;;1.00;99.90;;;;;;4997678;28;20029;-62
2022/12/10 04:55:17;;;;;;;61.80;26.92;;;0.90;99.90;;;;;;5012235;28;20058;-64
2022/12/10 04:58:02;;;;;;;59.13;27.30;;;0.80;99.90;;;;;;5011615;28;20034;-62
2022/12/10 05:00:48;;;;;;;58.92;27.08;;;0.70;99.90;;;;;;5011642;28;20489;-63
2022/12/10 05:03:35;;;;;;;56.78;27.52;;;0.80;99.90;;;;;;5011780;28;20045;-61
2022/12/10 05:06:21;;;;;;;57.55;25.70;;;0.80;99.90;;;;;;5011475;28;20564;-63
2022/12/10 05:09:06;;;;;;;58.35;25.42;;;0.80;99.90;;;;;;5010082;28;20041;-60
2022/12/10 05:11:52;;;;;;;52.10;23.77;;;0.80;99.90;;;;;;5012094;28;20044;-60
2022/12/10 05:14:38;;;;;;;52.03;24.70;;;0.80;99.90;;;;;;5011830;28;20113;-57
2022/12/10 05:17:24;;;;;;;57.17;26.05;;;0.80;99.90;;;;;;4991010;28;20031;-59
2022/12/10 05:20:10;;;;;;;54.97;25.45;;;0.80;99.90;;;;;;5002446;28;20034;-59
2022/12/10 05:26:02;;;;;;;49.25;24.63;;;0.70;99.90;;;;;;5012189;28;20483;-64
2022/12/10 05:28:53;;;;;;;55.55;24.35;;;0.60;99.90;;;;;;5012337;28;20604;-62
2022/12/10 05:31:39;;;;;;;58.28;27.23;;;0.60;99.90;;;;;;4992129;28;20037;-62
2022/12/10 05:34:26;;;;;;;49.47;23.83;;;0.70;99.90;;;;;;4994957;28;20422;-61
2022/12/10 05:37:11;;;;;;;55.25;26.33;;;0.60;99.90;;;;;;5010271;28;20022;-62
2022/12/10 05:39:57;;;;;;;56.88;26.88;;;0.60;99.90;;;;;;5010850;28;20030;-61
2022/12/10 05:42:43;;;;;;;61.35;29.85;;;0.60;99.90;;;;;;5011419;28;20030;-62
2022/12/10 05:45:31;;;;;;;57.47;27.77;;;0.60;99.90;;;;;;5011084;28;20037;-62
2022/12/10 05:48:17;;;;;;;61.22;27.60;;;0.60;99.90;;;;;;5011578;28;20034;-61
2022/12/10 05:51:08;;;;;;;59.55;27.52;;;0.40;99.90;;;;;;5011230;28;20030;-59
2022/12/10 05:53:56;;;;;;;56.22;26.17;;;0.50;99.90;;;;;;5012333;28;20033;-63
2022/12/10 05:56:42;;;;;;;63.47;28.70;;;0.50;99.90;;;;;;5011052;28;20057;-61
2022/12/10 05:59:28;;;;;;;57.90;28.08;;;0.50;99.90;;;;;;5011270;28;20037;-59
2022/12/10 06:02:14;;;;;;;64.97;29.23;;;0.60;99.90;;;;;;5010628;28;20030;-61
2022/12/10 06:05:00;;;;;;;60.00;28.45;;;0.60;99.90;;;;;;4997295;28;20069;-63
2022/12/10 06:07:46;;;;;;;59.22;28.23;;;0.60;99.90;;;;;;5011176;28;20038;-60
2022/12/10 06:10:35;;;;;;;64.95;28.30;;;0.60;99.90;;;;;;5010269;28;20072;-61
2022/12/10 06:13:21;;;;;;;61.22;27.58;;;0.60;99.90;;;;;;4996686;28;20356;-62
2022/12/10 06:16:09;;;;;;;68.72;30.58;;;0.50;99.90;;;;;;4991741;28;20525;-62
2022/12/10 06:18:56;;;;;;;57.13;26.65;;;0.60;99.90;;;;;;4993556;28;20498;-64
2022/12/10 06:21:42;;;;;;;62.15;28.90;;;0.70;99.90;;;;;;5010573;28;20088;-62
2022/12/10 06:24:29;;;;;;;58.55;27.77;;;0.70;99.90;;;;;;5010167;28;20033;-63
2022/12/10 06:27:15;;;;;;;48.63;23.42;;;0.70;99.90;;;;;;5010422;28;20036;-62
2022/12/10 06:30:01;;;;;;;49.22;26.13;;;0.80;99.90;;;;;;5003162;28;20112;-62
2022/12/10 06:32:47;;;;;;;53.38;26.17;;;0.80;99.90;;;;;;5010240;28;20483;-61
2022/12/10 06:35:33;;;;;;;50.10;26.38;;;0.70;99.90;;;;;;5010535;28;20042;-63
2022/12/10 06:38:19;;;;;;;50.10;24.88;;;0.80;99.90;;;;;;5009905;28;20030;-61
2022/12/10 06:41:07;;;;;;;57.97;25.83;;;0.70;99.90;;;;;;5010461;28;20053;-60
2022/12/10 06:43:57;;;;;;;58.65;27.92;;;0.80;99.90;;;;;;5010106;28;20041;-61
2022/12/10 06:46:43;;;;;;;52.40;24.98;;;0.80;99.90;;;;;;5010069;28;20491;-61
2022/12/10 06:49:29;;;;;;;55.67;25.42;;;0.70;99.90;;;;;;5009740;28;20437;-60
2022/12/10 06:52:15;;;;;;;57.38;27.55;;;0.70;99.90;;;;;;5009546;28;20037;-64
2022/12/10 06:55:01;;;;;;;50.88;25.75;;;0.70;99.90;;;;;;5009375;28;20055;-62
2022/12/10 06:57:50;;;;;;;57.70;27.05;;;0.60;99.90;;;;;;5009987;28;20038;-61
2022/12/10 07:00:36;;;;;;;57.38;26.73;;;0.70;99.90;;;;;;5009166;28;20033;-61
2022/12/10 07:03:22;;;;;;;54.13;26.08;;;0.70;99.90;;;;;;4996737;28;20042;-59
2022/12/10 07:06:09;;;;;;;49.30;24.83;;;0.70;99.90;;;;;;5008619;28;20026;-61
2022/12/10 07:08:55;;;;;;;55.58;25.13;;;0.70;99.90;;;;;;5008403;28;20037;-61
2022/12/10 07:11:41;;;;;;;54.17;25.00;;;0.60;99.90;;;;;;5007556;28;20605;-62
2022/12/10 07:14:27;;;;;;;61.50;28.10;;;0.60;99.90;;;;;;5006907;28;20030;-62
2022/12/10 07:17:13;;;;;;;53.25;25.83;;;0.60;99.90;;;;;;5009665;28;20545;-61
2022/12/10 07:20:00;;;;;;;57.70;25.98;;;0.70;99.90;;;;;;5008535;28;20034;-61
2022/12/10 07:22:46;;;;;;;51.60;24.35;;;0.70;99.90;;;;;;5010284;28;20549;-61
2022/12/10 07:25:33;;;;;;;49.10;25.23;;;0.60;99.90;;;;;;5009460;28;20132;-61
2022/12/10 07:28:18;;;;;;;53.67;25.48;;;0.70;99.90;;;;;;5008001;28;20034;-59
2022/12/10 07:31:07;;;;;;;50.00;24.25;;;0.80;99.90;;;;;;5008972;28;20112;-62
2022/12/10 07:33:54;;;;;;;48.78;25.02;;;0.90;99.90;;;;;;5012800;28;20121;-62
2022/12/10 07:36:41;;;;;;;44.70;23.15;;;0.80;99.90;;;;;;5009316;28;20042;-60
2022/12/10 07:39:27;;;;;;;53.08;25.88;;;0.90;99.90;;;;;;5009751;28;20046;-63
2022/12/10 07:42:12;;;;;;;51.00;26.02;;;0.80;99.90;;;;;;5009851;28;20058;-62
2022/12/10 07:44:58;;;;;;;50.72;24.52;;;0.80;99.90;;;;;;5009518;28;20034;-61
2022/12/10 07:47:44;;;;;;;48.05;24.98;;;0.90;99.90;;;;;;5009743;28;20490;-60
2022/12/10 07:50:30;;;;;;;50.10;23.95;;;0.90;99.90;;;;;;5012348;28;20040;-61
2022/12/10 07:53:16;;;;;;;43.33;22.60;;;0.80;99.90;;;;;;4996696;28;20042;-62
2022/12/10 07:56:03;;;;;;;43.00;22.98;;;0.90;99.90;;;;;;5006225;28;20046;-63
2022/12/10 07:58:50;;;;;;;49.42;24.30;;;0.90;99.90;;;;;;5008551;28;20105;-61
2022/12/10 08:01:36;;;;;;;48.42;24.17;;;1.00;99.90;;;;;;5007241;28;21682;-62
2022/12/10 08:04:22;;;;;;;49.08;24.52;;;1.00;99.90;;;;;;5005154;28;20685;-62
2022/12/10 08:07:08;;;;;;;47.00;22.85;;;0.90;99.90;;;;;;5009197;28;20034;-63
2022/12/10 08:09:54;;;;;;;61.00;27.83;;;0.80;99.90;;;;;;4995318;28;20033;-63
2022/12/10 08:12:40;;;;;;;56.70;28.05;;;0.70;99.90;;;;;;5006917;28;20022;-62
2022/12/10 08:15:29;;;;;;;58.40;30.83;;;0.70;99.90;;;;;;5010533;28;20034;-63
2022/12/10 08:18:15;;;;;;;67.95;33.00;;;0.60;99.90;;;;;;5011104;28;20030;-62
2022/12/10 08:21:10;;;;;;;60.45;29.25;;;0.50;99.90;;;;;;4995844;28;20037;-62
2022/12/10 08:23:56;;;;;;;63.40;30.23;;;0.60;99.90;;;;;;5008493;28;20026;-62
2022/12/10 08:26:42;;;;;;;70.68;36.92;;;0.70;99.90;;;;;;5012416;28;20030;-64
2022/12/10 08:29:28;;;;;;;60.42;29.65;;;0.60;99.90;;;;;;5001900;28;20033;-62
2022/12/10 08:32:14;;;;;;;61.85;30.23;;;0.60;99.90;;;;;;4997488;28;20392;-61
2022/12/10 08:35:00;;;;;;;61.08;27.75;;;0.60;99.90;;;;;;5011100;28;20496;-63
2022/12/10 08:37:46;;;;;;;45.40;23.27;;;0.70;99.90;;;;;;4997576;28;20029;-62
2022/12/10 08:40:32;;;;;;;50.03;25.35;;;0.70;99.90;;;;;;5010489;28;20030;-61
2022/12/10 08:43:18;;;;;;;43.85;23.13;;;0.70;99.90;;;;;;5010555;28;20022;-63
2022/12/10 08:46:04;;;;;;;50.85;24.58;;;0.80;99.90;;;;;;4997137;28;20026;-61
2022/12/10 08:48:50;;;;;;;49.38;24.02;;;0.80;99.90;;;;;;5011384;28;20033;-62
2022/12/10 08:51:36;;;;;;;51.80;24.85;;;0.80;99.90;;;;;;5011520;28;20026;-62
2022/12/10 08:54:22;;;;;;;69.25;29.52;;;0.80;99.90;;;;;;4993419;28;20539;-61
2022/12/10 08:57:08;;;;;;;83.55;34.50;;;0.70;99.90;;;;;;5002592;28;20490;-60
2022/12/10 08:59:54;;;;;;;60.53;27.95;;;0.70;99.90;;;;;;5011937;28;20058;-62
2022/12/10 09:02:40;;;;;;;57.05;26.25;;;0.70;99.90;;;;;;5011980;28;20041;-63
2022/12/10 09:05:26;;;;;;;47.25;23.92;;;0.70;99.90;;;;;;5006388;28;20459;-64
2022/12/10 09:08:19;;;;;;;46.63;24.33;;;0.90;99.90;;;;;;5011130;28;20146;-65
2022/12/10 09:11:11;;;;;;;48.20;23.70;;;0.70;99.90;;;;;;5013370;28;20056;-60
2022/12/10 09:13:58;;;;;;;43.13;23.33;;;0.70;99.90;;;;;;5012385;28;20402;-63
2022/12/10 09:16:43;;;;;;;43.22;22.75;;;0.90;99.90;;;;;;5013030;28;20121;-55
2022/12/10 09:19:29;;;;;;;44.00;23.13;;;0.90;99.90;;;;;;5011314;28;20052;-58
2022/12/10 09:22:15;;;;;;;45.47;24.25;;;1.00;99.90;;;;;;5008492;28;20105;-56
2022/12/10 09:25:01;;;;;;;45.05;24.40;;;1.00;99.90;;;;;;5009118;28;20062;-55
2022/12/10 09:27:48;;;;;;;46.42;22.90;;;1.00;99.90;;;;;;5011017;28;20026;-56
2022/12/10 09:30:33;;;;;;;44.45;22.95;;;0.90;99.90;;;;;;5011634;28;20033;-55
2022/12/10 09:33:19;;;;;;;45.65;24.23;;;1.00;99.90;;;;;;5011219;28;20038;-52
2022/12/10 09:36:08;;;;;;;44.47;25.10;;;0.90;99.90;;;;;;5011942;28;20522;-57
2022/12/10 09:38:54;;;;;;;44.30;23.08;;;0.90;99.90;;;;;;5010015;28;20383;-57
2022/12/10 09:41:42;;;;;;;44.67;22.38;;;0.90;99.90;;;;;;5007144;28;20375;-54
2022/12/10 09:44:37;;;;;;;46.13;24.83;;;0.90;99.90;;;;;;5016914;28;20097;-60
2022/12/10 09:47:59;;;;;;;51.20;25.10;;;0.80;99.90;;;;;;5011825;28;20030;-61
2022/12/10 09:50:53;;;;;;;46.22;24.42;;;0.80;99.90;;;;;;5007524;28;20295;-54
2022/12/10 09:53:40;;;;;;;48.97;23.85;;;0.80;99.90;;;;;;5011561;28;20077;-51
2022/12/10 09:56:33;;;;;;;47.35;25.60;;;0.90;99.90;;;;;;5011286;28;20030;-57
2022/12/10 09:59:24;;;;;;;46.60;24.10;;;0.80;99.90;;;;;;5009665;28;20422;-55
2022/12/10 10:02:28;;;;;;;52.92;26.25;;;0.80;99.90;;;;;;5010785;28;20503;-56
2022/12/10 10:05:24;;;;;;;48.75;25.90;;;0.80;99.90;;;;;;5010586;28;20018;-59
2022/12/10 10:08:31;;;;;;;48.10;24.30;;;0.90;99.90;;;;;;5011421;28;20562;-56
2022/12/10 10:11:20;;;;;;;54.38;27.80;;;0.70;99.90;;;;;;5010047;28;20071;-54
2022/12/10 10:14:13;;;;;;;54.22;28.80;;;0.60;99.90;;;;;;5011278;28;20447;-58
2022/12/10 10:17:09;;;;;;;48.33;24.58;;;0.60;99.90;;;;;;5011551;28;20501;-57
2022/12/10 10:19:54;;;;;;;61.60;27.75;;;0.70;99.90;;;;;;5011541;28;20117;-60
2022/12/10 10:22:41;;;;;;;51.30;26.70;;;1.50;99.90;;;;;;5013936;28;20022;-55
2022/12/10 10:25:28;;;;;;;55.45;28.33;;;1.90;99.90;;;;;;5011896;28;20040;-58
2022/12/10 10:28:22;;;;;;;57.80;28.50;;;1.80;99.90;;;;;;5011488;28;20033;-56
2022/12/10 10:31:24;;;;;;;44.92;24.50;;;1.30;99.90;;;;;;5008141;28;20065;-52
2022/12/10 10:34:23;;;;;;;50.10;26.05;;;1.10;99.90;;;;;;5007110;28;20081;-57
2022/12/10 10:37:35;;;;;;;55.45;27.55;;;1.00;99.90;;;;;;5003812;28;20116;-54
2022/12/10 10:40:42;;;;;;;51.10;26.67;;;0.90;99.90;;;;;;5011009;28;20036;-56
2022/12/10 10:43:44;;;;;;;57.97;27.50;;;1.00;99.90;;;;;;5001236;28;20034;-57
2022/12/10 10:46:36;;;;;;;62.60;30.15;;;1.00;99.90;;;;;;5010293;28;20091;-56
2022/12/10 10:49:44;;;;;;;59.80;29.73;;;1.00;99.90;;;;;;5008367;28;20038;-54
2022/12/10 10:52:36;;;;;;;53.45;28.10;;;1.10;99.90;;;;;;5009824;28;20037;-55
2022/12/10 10:55:35;;;;;;;58.50;27.85;;;1.10;99.90;;;;;;5010131;28;20456;-54
2022/12/10 10:58:22;;;;;;;65.85;32.58;;;1.20;99.90;;;;;;4996180;28;20045;-57
2022/12/10 11:01:08;;;;;;;69.18;33.28;;;1.10;99.90;;;;;;5009971;28;20034;-57
2022/12/10 11:03:58;;;;;;;50.10;25.77;;;1.10;99.90;;;;;;5009079;28;20026;-60
2022/12/10 11:06:45;;;;;;;60.22;27.83;;;1.20;99.90;;;;;;5010569;28;20033;-57
2022/12/10 11:09:33;;;;;;;57.30;31.02;;;1.30;99.90;;;;;;5009753;28;20038;-59
2022/12/10 11:12:28;;;;;;;58.38;29.45;;;1.40;99.90;;;;;;5009770;28;20429;-60
2022/12/10 11:15:23;;;;;;;58.20;29.00;;;1.30;99.90;;;;;;5008143;28;20037;-60
2022/12/10 11:18:30;;;;;;;56.10;27.63;;;1.30;99.90;;;;;;5010076;28;20030;-59
2022/12/10 11:21:21;;;;;;;61.13;29.25;;;1.30;99.90;;;;;;5010444;28;20526;-55
2022/12/10 11:24:11;;;;;;;58.95;28.13;;;1.40;99.90;;;;;;5010127;28;20040;-58
2022/12/10 11:26:57;;;;;;;56.70;28.13;;;1.60;99.90;;;;;;5009817;28;20030;-57
2022/12/10 11:30:10;;;;;;;58.80;28.35;;;1.50;99.90;;;;;;5009410;28;20057;-57
2022/12/10 11:33:01;;;;;;;49.67;26.67;;;1.50;99.90;;;;;;5010120;28;20030;-59
2022/12/10 11:35:58;;;;;;;51.95;26.33;;;1.40;99.90;;;;;;5009773;28;20045;-59
2022/12/10 11:39:02;;;;;;;52.47;26.45;;;1.30;99.90;;;;;;5009081;28;20088;-57
2022/12/10 11:42:00;;;;;;;51.28;26.25;;;1.30;99.90;;;;;;5009499;28;20030;-57
2022/12/10 11:45:10;;;;;;;52.67;26.88;;;1.30;99.90;;;;;;5006960;28;20030;-59
2022/12/10 11:48:20;;;;;;;56.08;27.63;;;1.30;99.90;;;;;;5004008;28;20049;-59
2022/12/10 11:51:17;;;;;;;53.88;27.75;;;1.30;99.90;;;;;;5009354;28;20112;-59
2022/12/10 11:54:15;;;;;;;53.67;26.08;;;1.30;99.90;;;;;;5013602;28;20698;-60
2022/12/10 11:57:06;;;;;;;56.47;27.08;;;1.30;99.90;;;;;;5013089;28;20117;-62
2022/12/10 12:00:25;;;;;;;57.70;29.27;;;1.30;99.90;;;;;;4994095;28;20042;-60
2022/12/10 12:03:28;;;;;;;53.75;26.98;;;1.30;99.90;;;;;;5004373;28;20398;-60
2022/12/10 12:06:23;;;;;;;56.53;28.05;;;1.40;99.90;;;;;;5013255;28;20033;-59
2022/12/10 12:10:03;;;;;;;57.03;29.95;;;1.20;99.90;;;;;;5013380;28;20026;-59
2022/12/10 12:13:04;;;;;;;49.78;27.08;;;1.30;99.90;;;;;;4937373;28;20035;-57
2022/12/10 12:15:57;;;;;;;54.38;26.63;;;1.20;99.90;;;;;;4994135;28;20057;-58
2022/12/10 12:19:23;;;;;;;53.83;28.67;;;1.20;99.90;;;;;;5011875;28;20033;-58
2022/12/10 12:22:28;;;;;;;51.97;25.95;;;1.20;99.90;;;;;;5012608;28;20032;-60
2022/12/10 12:25:36;;;;;;;53.85;27.23;;;1.20;99.90;;;;;;5013011;28;20045;-59
2022/12/10 12:28:29;;;;;;;52.17;26.02;;;1.20;99.90;;;;;;5012923;28;20030;-58
2022/12/10 12:31:20;;;;;;;52.63;27.98;;;1.20;99.90;;;;;;4993232;28;20034;-60
2022/12/10 12:34:26;;;;;;;52.80;28.80;;;1.30;99.90;;;;;;5008127;28;20072;-60
2022/12/10 12:37:16;;;;;;;52.10;26.25;;;1.30;99.90;;;;;;4992997;28;20037;-61
2022/12/10 12:40:31;;;;;;;53.17;28.63;;;1.20;99.90;;;;;;4995253;28;20027;-59
2022/12/10 12:43:36;;;;;;;53.72;26.27;;;1.20;99.90;;;;;;5012336;28;20101;-60
2022/12/10 12:46:46;;;;;;;58.00;28.23;;;1.20;99.90;;;;;;4998456;28;20473;-59
2022/12/10 12:49:39;;;;;;;53.00;28.30;;;1.30;99.90;;;;;;5011273;28;20058;-57
2022/12/10 12:52:34;;;;;;;52.88;25.73;;;1.30;99.90;;;;;;5012511;28;20034;-59
2022/12/10 12:55:37;;;;;;;51.25;27.20;;;1.30;99.90;;;;;;4993693;28;20057;-56
2022/12/10 12:58:31;;;;;;;50.63;27.45;;;1.40;99.90;;;;;;4992839;28;20030;-60
2022/12/10 13:01:35;;;;;;;55.33;27.63;;;1.40;99.90;;;;;;4992184;28;20530;-60
2022/12/10 13:04:22;;;;;;;57.00;30.83;;;1.50;99.90;;;;;;4993666;28;20027;-57
2022/12/10 13:07:14;;;;;;;58.63;27.95;;;1.50;99.90;;;;;;4999934;28;20033;-59
2022/12/10 13:10:05;;;;;;;57.60;27.95;;;1.50;99.90;;;;;;5012273;28;20026;-59
2022/12/10 13:13:16;;;;;;;50.78;26.73;;;1.40;99.90;;;;;;5011901;28;20522;-58
2022/12/10 13:16:48;;;;;;;54.45;27.73;;;1.40;99.90;;;;;;5011018;28;20525;-62
2022/12/10 13:19:35;;;;;;;54.90;27.52;;;1.30;99.90;;;;;;5005133;28;20041;-59
2022/12/10 13:22:37;;;;;;;50.95;26.75;;;1.30;99.90;;;;;;5010342;28;20041;-58
2022/12/10 13:25:56;;;;;;;53.00;27.30;;;1.40;99.90;;;;;;4999302;28;20574;-58
2022/12/10 13:28:50;;;;;;;48.28;25.30;;;1.50;99.90;;;;;;5020800;28;20087;-59
2022/12/10 13:31:38;;;;;;;51.72;27.85;;;1.60;99.90;;;;;;5002490;28;20113;-58
2022/12/10 13:34:32;;;;;;;55.47;27.95;;;1.50;99.90;;;;;;5012008;28;20101;-59
2022/12/10 13:37:30;;;;;;;56.22;27.50;;;1.40;99.90;;;;;;5000424;28;20494;-59
2022/12/10 13:44:23;;;;;;;52.92;26.77;;;1.30;99.90;;;;;;5005951;28;20088;-60
2022/12/10 13:47:05;;;;;;;50.72;26.00;;;1.30;99.90;;;;;;4999792;28;20052;-62
2022/12/10 13:49:57;;;;;;;54.42;26.42;;;1.30;99.90;;;;;;5011209;28;20101;-60
2022/12/10 13:53:14;;;;;;;54.92;28.00;;;1.30;99.90;;;;;;4994411;28;20060;-60
2022/12/10 13:56:24;;;;;;;55.58;27.80;;;1.10;99.90;;;;;;5013526;28;20034;-60
2022/12/10 13:59:20;;;;;;;54.38;28.05;;;1.10;99.90;;;;;;5010876;28;20044;-60
2022/12/10 14:02:18;;;;;;;57.40;29.98;;;1.10;99.90;;;;;;4999587;28;20097;-59
2022/12/10 14:05:25;;;;;;;55.00;27.45;;;1.10;99.90;;;;;;5010569;28;20018;-59
2022/12/10 14:08:16;;;;;;;55.35;26.25;;;1.30;99.90;;;;;;5009694;28;20119;-59
2022/12/10 14:11:06;;;;;;;59.35;26.83;;;1.30;99.90;;;;;;5006570;28;20033;-61
2022/12/10 14:13:58;;;;;;;56.67;26.77;;;1.20;99.90;;;;;;5014070;28;20101;-60
2022/12/10 14:16:45;;;;;;;47.90;25.42;;;1.20;99.90;;;;;;5008811;28;20053;-59
2022/12/10 14:19:34;;;;;;;56.47;26.80;;;1.10;99.90;;;;;;5000452;28;20038;-57
2022/12/10 14:22:31;;;;;;;51.33;26.92;;;1.10;99.90;;;;;;5006876;28;20109;-55
2022/12/10 14:25:21;;;;;;;53.88;27.45;;;1.10;99.90;;;;;;5005121;28;20150;-54
2022/12/10 14:28:16;;;;;;;52.88;26.83;;;1.10;99.90;;;;;;5001532;28;20033;-59
2022/12/10 14:31:02;;;;;;;50.50;25.92;;;1.10;99.90;;;;;;5003879;28;20520;-57
2022/12/10 14:33:49;;;;;;;51.35;25.63;;;1.00;99.90;;;;;;5005133;28;20050;-56
2022/12/10 14:36:44;;;;;;;50.05;25.45;;;1.00;99.90;;;;;;5008391;28;20037;-56
2022/12/10 14:39:33;;;;;;;51.28;26.00;;;1.00;99.90;;;;;;5001184;28;20245;-56
2022/12/10 14:42:19;;;;;;;47.28;24.30;;;1.00;99.90;;;;;;5001812;28;20038;-59
2022/12/10 14:45:07;;;;;;;49.38;24.83;;;1.10;99.90;;;;;;5008068;28;20060;-58
2022/12/10 14:47:53;;;;;;;48.30;25.58;;;1.00;99.90;;;;;;5007488;28;20422;-59
2022/12/10 14:50:39;;;;;;;48.67;24.30;;;0.90;99.90;;;;;;5003778;28;20045;-59
2022/12/10 14:53:28;;;;;;;47.90;23.38;;;0.90;99.90;;;;;;5003387;28;20057;-57
2022/12/10 14:56:36;;;;;;;47.20;24.20;;;0.80;99.90;;;;;;5007321;28;20084;-58